KLM430 OMDB-EHAM

(1/4) > >>

Jonas:
Departure=             OMDB
Arrival=               EHAM
Alternate=             EBBR
FlightHours=           6
FlightMinutes=         41
FuelHours=             8
FuelMinutes=           25
Airspeed=              514
Altitude=              38000
Route=                 N0460F340 PAPAR UP574 SYZ W3 MESVI UL223 UMH UL124 VAN UL852 CRM UT33 KUGOS UL851 ADINA/N0484F380 UL624 LABUK UY444 ELMEK UL602 RKN

REG/PHBVB SEL/JLCR OPR/KLM DAT/SV RMK/AGCS TCAS EQPD DOF/090305 RVR/75 ORGN/EHAMKLMF

METAR OMDB 051100Z 29014KT CAVOK 24/09 Q1015 NOSIG

METAR EHAM 051655Z 34013KT 320V020 9999 FEW013 BKN016 05/03 Q0993 NOSIG




















































Tack för mig!

nighty142:
Wow! Grattis Jonas, tror det är dom bästa screenshots jag sett hitills 2009! 

RoniisH:
Quote

Wow! Grattis Jonas, tror det är dom bästa screenshots jag sett hitills 2009! 

Instämmer! Mycket bra!

shari:
FS när det är som bäst!

Adam:
Grymt synd bara att det inte var några landnigsbilder:(

Navigation

Up one level

Next page